sensor_id;sensor_type;location;lat;lon;timestamp;temperature;humidity
10282;DHT22;5186;59.472;18.048;2022-08-21T00:01:22;18.20;99.90
10282;DHT22;5186;59.472;18.048;2022-08-21T00:03:49;18.20;99.90
10282;DHT22;5186;59.472;18.048;2022-08-21T00:06:16;18.20;99.90
10282;DHT22;5186;59.472;18.048;2022-08-21T00:08:42;18.10;99.90
10282;DHT22;5186;59.472;18.048;2022-08-21T00:11:08;18.10;99.90
10282;DHT22;5186;59.472;18.048;2022-08-21T00:13:34;18.10;99.90
10282;DHT22;5186;59.472;18.048;2022-08-21T00:16:00;18.10;99.90
10282;DHT22;5186;59.472;18.048;2022-08-21T00:18:26;18.10;99.90
10282;DHT22;5186;59.472;18.048;2022-08-21T00:20:52;18.10;99.90
10282;DHT22;5186;59.472;18.048;2022-08-21T00:23:17;18.10;99.90
10282;DHT22;5186;59.472;18.048;2022-08-21T00:25:44;18.10;99.90
10282;DHT22;5186;59.472;18.048;2022-08-21T00:28:10;18.10;99.90
10282;DHT22;5186;59.472;18.048;2022-08-21T00:30:36;18.10;99.90
10282;DHT22;5186;59.472;18.048;2022-08-21T00:33:03;18.10;99.90
10282;DHT22;5186;59.472;18.048;2022-08-21T00:35:36;18.10;99.90
10282;DHT22;5186;59.472;18.048;2022-08-21T00:38:03;18.00;99.90
10282;DHT22;5186;59.472;18.048;2022-08-21T00:40:33;18.00;99.90
10282;DHT22;5186;59.472;18.048;2022-08-21T00:43:03;18.00;99.90
10282;DHT22;5186;59.472;18.048;2022-08-21T00:45:29;18.00;99.90
10282;DHT22;5186;59.472;18.048;2022-08-21T00:47:55;18.00;99.90
10282;DHT22;5186;59.472;18.048;2022-08-21T00:50:22;18.00;99.90
10282;DHT22;5186;59.472;18.048;2022-08-21T00:52:51;18.00;99.90
10282;DHT22;5186;59.472;18.048;2022-08-21T00:55:18;18.00;99.90
10282;DHT22;5186;59.472;18.048;2022-08-21T00:57:48;17.90;99.90
10282;DHT22;5186;59.472;18.048;2022-08-21T01:00:18;17.80;99.90
10282;DHT22;5186;59.472;18.048;2022-08-21T01:02:44;17.80;99.90
10282;DHT22;5186;59.472;18.048;2022-08-21T01:05:11;17.70;99.90
10282;DHT22;5186;59.472;18.048;2022-08-21T01:07:37;17.70;99.90
10282;DHT22;5186;59.472;18.048;2022-08-21T01:10:05;17.70;99.90
10282;DHT22;5186;59.472;18.048;2022-08-21T01:12:31;17.70;99.90
10282;DHT22;5186;59.472;18.048;2022-08-21T01:14:57;17.70;99.90
10282;DHT22;5186;59.472;18.048;2022-08-21T01:17:24;17.70;99.90
10282;DHT22;5186;59.472;18.048;2022-08-21T01:19:51;17.60;99.90
10282;DHT22;5186;59.472;18.048;2022-08-21T01:22:18;17.70;99.90
10282;DHT22;5186;59.472;18.048;2022-08-21T01:24:44;17.60;99.90
10282;DHT22;5186;59.472;18.048;2022-08-21T01:27:10;17.60;99.90
10282;DHT22;5186;59.472;18.048;2022-08-21T01:32:13;17.60;99.90
10282;DHT22;5186;59.472;18.048;2022-08-21T01:34:41;17.60;99.90
10282;DHT22;5186;59.472;18.048;2022-08-21T01:37:07;17.60;99.90
10282;DHT22;5186;59.472;18.048;2022-08-21T01:39:33;17.50;99.90
10282;DHT22;5186;59.472;18.048;2022-08-21T01:41:59;17.50;99.90
10282;DHT22;5186;59.472;18.048;2022-08-21T01:44:26;17.50;99.90
10282;DHT22;5186;59.472;18.048;2022-08-21T01:46:52;17.50;99.90
10282;DHT22;5186;59.472;18.048;2022-08-21T01:49:19;17.50;99.90
10282;DHT22;5186;59.472;18.048;2022-08-21T01:51:44;17.40;99.90
10282;DHT22;5186;59.472;18.048;2022-08-21T01:54:10;17.50;99.90
10282;DHT22;5186;59.472;18.048;2022-08-21T01:56:41;17.40;99.90
10282;DHT22;5186;59.472;18.048;2022-08-21T01:59:08;17.40;99.90
10282;DHT22;5186;59.472;18.048;2022-08-21T02:01:34;17.40;99.90
10282;DHT22;5186;59.472;18.048;2022-08-21T02:04:00;17.40;99.90
10282;DHT22;5186;59.472;18.048;2022-08-21T02:06:26;17.30;99.90
10282;DHT22;5186;59.472;18.048;2022-08-21T02:08:51;17.30;99.90
10282;DHT22;5186;59.472;18.048;2022-08-21T02:11:17;17.40;99.90
10282;DHT22;5186;59.472;18.048;2022-08-21T02:13:43;17.30;99.90
10282;DHT22;5186;59.472;18.048;2022-08-21T02:16:09;17.30;99.90
10282;DHT22;5186;59.472;18.048;2022-08-21T02:18:35;17.30;99.90
10282;DHT22;5186;59.472;18.048;2022-08-21T02:21:01;17.30;99.90
10282;DHT22;5186;59.472;18.048;2022-08-21T02:23:27;17.30;99.90
10282;DHT22;5186;59.472;18.048;2022-08-21T02:26:04;17.30;99.90
10282;DHT22;5186;59.472;18.048;2022-08-21T02:28:30;17.30;99.90
10282;DHT22;5186;59.472;18.048;2022-08-21T02:30:56;17.30;99.90
10282;DHT22;5186;59.472;18.048;2022-08-21T02:33:22;17.30;99.90
10282;DHT22;5186;59.472;18.048;2022-08-21T02:35:49;17.30;99.90
10282;DHT22;5186;59.472;18.048;2022-08-21T02:38:18;17.20;99.90
10282;DHT22;5186;59.472;18.048;2022-08-21T02:40:46;17.20;99.90
10282;DHT22;5186;59.472;18.048;2022-08-21T02:43:13;17.20;99.90
10282;DHT22;5186;59.472;18.048;2022-08-21T02:45:40;17.20;99.90
10282;DHT22;5186;59.472;18.048;2022-08-21T02:48:11;17.20;99.90
10282;DHT22;5186;59.472;18.048;2022-08-21T02:50:46;17.20;99.90
10282;DHT22;5186;59.472;18.048;2022-08-21T02:53:14;17.20;99.90
10282;DHT22;5186;59.472;18.048;2022-08-21T02:55:45;17.10;99.90
10282;DHT22;5186;59.472;18.048;2022-08-21T02:58:14;17.10;99.90
10282;DHT22;5186;59.472;18.048;2022-08-21T03:00:41;17.20;99.90
10282;DHT22;5186;59.472;18.048;2022-08-21T03:03:07;17.20;99.90
10282;DHT22;5186;59.472;18.048;2022-08-21T03:05:34;17.20;99.90
10282;DHT22;5186;59.472;18.048;2022-08-21T03:08:03;17.10;99.90
10282;DHT22;5186;59.472;18.048;2022-08-21T03:10:29;17.10;99.90
10282;DHT22;5186;59.472;18.048;2022-08-21T03:12:56;17.10;99.90
10282;DHT22;5186;59.472;18.048;2022-08-21T03:15:22;17.00;99.90
10282;DHT22;5186;59.472;18.048;2022-08-21T03:17:49;17.00;99.90
10282;DHT22;5186;59.472;18.048;2022-08-21T03:20:18;17.00;99.90
10282;DHT22;5186;59.472;18.048;2022-08-21T03:22:48;17.00;99.90
10282;DHT22;5186;59.472;18.048;2022-08-21T03:25:13;17.00;99.90
10282;DHT22;5186;59.472;18.048;2022-08-21T03:27:39;17.00;99.90
10282;DHT22;5186;59.472;18.048;2022-08-21T03:30:06;17.00;99.90
10282;DHT22;5186;59.472;18.048;2022-08-21T03:32:33;17.00;99.90
10282;DHT22;5186;59.472;18.048;2022-08-21T03:34:59;17.00;99.90
10282;DHT22;5186;59.472;18.048;2022-08-21T03:37:25;17.00;99.90
10282;DHT22;5186;59.472;18.048;2022-08-21T03:39:51;17.00;99.90
10282;DHT22;5186;59.472;18.048;2022-08-21T03:42:16;17.00;99.90
10282;DHT22;5186;59.472;18.048;2022-08-21T03:44:42;17.00;99.90
10282;DHT22;5186;59.472;18.048;2022-08-21T03:47:08;17.00;99.90
10282;DHT22;5186;59.472;18.048;2022-08-21T03:49:34;17.00;99.90
10282;DHT22;5186;59.472;18.048;2022-08-21T03:52:00;17.00;99.90
10282;DHT22;5186;59.472;18.048;2022-08-21T03:54:26;17.00;99.90
10282;DHT22;5186;59.472;18.048;2022-08-21T03:56:51;17.00;99.90
10282;DHT22;5186;59.472;18.048;2022-08-21T03:59:18;17.00;99.90
10282;DHT22;5186;59.472;18.048;2022-08-21T04:01:55;17.00;99.90
10282;DHT22;5186;59.472;18.048;2022-08-21T04:04:20;17.00;99.90
10282;DHT22;5186;59.472;18.048;2022-08-21T04:06:47;17.00;99.90
10282;DHT22;5186;59.472;18.048;2022-08-21T04:09:12;17.10;99.90
10282;DHT22;5186;59.472;18.048;2022-08-21T04:11:38;17.10;99.90
10282;DHT22;5186;59.472;18.048;2022-08-21T04:14:03;17.10;99.90
10282;DHT22;5186;59.472;18.048;2022-08-21T04:16:29;17.10;99.90
10282;DHT22;5186;59.472;18.048;2022-08-21T04:18:56;17.20;99.90
10282;DHT22;5186;59.472;18.048;2022-08-21T04:21:22;17.20;99.90
10282;DHT22;5186;59.472;18.048;2022-08-21T04:23:48;17.10;99.90
10282;DHT22;5186;59.472;18.048;2022-08-21T04:26:14;17.20;99.90
10282;DHT22;5186;59.472;18.048;2022-08-21T04:28:39;17.20;99.90
10282;DHT22;5186;59.472;18.048;2022-08-21T04:31:05;17.20;99.90
10282;DHT22;5186;59.472;18.048;2022-08-21T04:33:30;17.20;99.90
10282;DHT22;5186;59.472;18.048;2022-08-21T04:35:56;17.30;99.90
10282;DHT22;5186;59.472;18.048;2022-08-21T04:38:22;17.30;99.90
10282;DHT22;5186;59.472;18.048;2022-08-21T04:40:48;17.30;99.90
10282;DHT22;5186;59.472;18.048;2022-08-21T04:43:14;17.30;99.90
10282;DHT22;5186;59.472;18.048;2022-08-21T04:45:42;17.30;99.90
10282;DHT22;5186;59.472;18.048;2022-08-21T04:48:10;17.30;99.90
10282;DHT22;5186;59.472;18.048;2022-08-21T04:50:57;17.30;99.90
10282;DHT22;5186;59.472;18.048;2022-08-21T04:55:54;17.40;99.90
10282;DHT22;5186;59.472;18.048;2022-08-21T04:58:22;17.40;99.90
10282;DHT22;5186;59.472;18.048;2022-08-21T05:00:53;17.40;99.90
10282;DHT22;5186;59.472;18.048;2022-08-21T05:03:19;17.40;99.90
10282;DHT22;5186;59.472;18.048;2022-08-21T05:05:46;17.40;99.90
10282;DHT22;5186;59.472;18.048;2022-08-21T05:08:15;17.50;99.90
10282;DHT22;5186;59.472;18.048;2022-08-21T05:10:42;17.50;99.90
10282;DHT22;5186;59.472;18.048;2022-08-21T05:13:09;17.50;99.90
10282;DHT22;5186;59.472;18.048;2022-08-21T05:15:35;17.50;99.90
10282;DHT22;5186;59.472;18.048;2022-08-21T05:18:01;17.50;99.90
10282;DHT22;5186;59.472;18.048;2022-08-21T05:20:27;17.50;99.90
10282;DHT22;5186;59.472;18.048;2022-08-21T05:22:53;17.60;99.90
10282;DHT22;5186;59.472;18.048;2022-08-21T05:25:19;17.60;99.90
10282;DHT22;5186;59.472;18.048;2022-08-21T05:27:45;17.60;99.90
10282;DHT22;5186;59.472;18.048;2022-08-21T05:30:10;17.70;99.90
10282;DHT22;5186;59.472;18.048;2022-08-21T05:32:36;17.60;99.90
10282;DHT22;5186;59.472;18.048;2022-08-21T05:35:05;17.70;99.90
10282;DHT22;5186;59.472;18.048;2022-08-21T05:37:31;17.70;99.90
10282;DHT22;5186;59.472;18.048;2022-08-21T05:39:57;17.70;99.90
10282;DHT22;5186;59.472;18.048;2022-08-21T05:42:22;17.70;99.90
10282;DHT22;5186;59.472;18.048;2022-08-21T05:44:48;17.70;99.90
10282;DHT22;5186;59.472;18.048;2022-08-21T05:47:14;17.70;99.90
10282;DHT22;5186;59.472;18.048;2022-08-21T05:49:40;17.70;99.90
10282;DHT22;5186;59.472;18.048;2022-08-21T05:52:05;17.80;99.90
10282;DHT22;5186;59.472;18.048;2022-08-21T05:54:31;17.80;99.90
10282;DHT22;5186;59.472;18.048;2022-08-21T05:56:57;17.80;99.90
10282;DHT22;5186;59.472;18.048;2022-08-21T05:59:23;17.80;99.90
10282;DHT22;5186;59.472;18.048;2022-08-21T06:01:48;17.90;99.90
10282;DHT22;5186;59.472;18.048;2022-08-21T06:04:14;17.90;99.90
10282;DHT22;5186;59.472;18.048;2022-08-21T06:06:40;17.90;99.90
10282;DHT22;5186;59.472;18.048;2022-08-21T06:09:06;18.00;99.90
10282;DHT22;5186;59.472;18.048;2022-08-21T06:11:32;18.10;99.90
10282;DHT22;5186;59.472;18.048;2022-08-21T06:13:58;18.10;99.90
10282;DHT22;5186;59.472;18.048;2022-08-21T06:16:24;18.10;99.90
10282;DHT22;5186;59.472;18.048;2022-08-21T06:18:50;18.10;99.90
10282;DHT22;5186;59.472;18.048;2022-08-21T06:21:16;18.20;99.90
10282;DHT22;5186;59.472;18.048;2022-08-21T06:23:42;18.20;99.90
10282;DHT22;5186;59.472;18.048;2022-08-21T06:26:09;18.20;99.90
10282;DHT22;5186;59.472;18.048;2022-08-21T06:28:36;18.30;99.90
10282;DHT22;5186;59.472;18.048;2022-08-21T06:31:14;18.30;99.90
10282;DHT22;5186;59.472;18.048;2022-08-21T06:33:40;18.30;99.90
10282;DHT22;5186;59.472;18.048;2022-08-21T06:36:06;18.40;99.90
10282;DHT22;5186;59.472;18.048;2022-08-21T06:38:32;18.50;99.90
10282;DHT22;5186;59.472;18.048;2022-08-21T06:40:57;18.50;99.90
10282;DHT22;5186;59.472;18.048;2022-08-21T06:43:23;18.60;99.90
10282;DHT22;5186;59.472;18.048;2022-08-21T06:45:48;18.60;99.90
10282;DHT22;5186;59.472;18.048;2022-08-21T06:48:14;18.60;99.90
10282;DHT22;5186;59.472;18.048;2022-08-21T06:50:40;18.60;99.90
10282;DHT22;5186;59.472;18.048;2022-08-21T06:53:09;18.60;99.90
10282;DHT22;5186;59.472;18.048;2022-08-21T06:55:35;18.70;99.90
10282;DHT22;5186;59.472;18.048;2022-08-21T06:58:02;18.70;99.90
10282;DHT22;5186;59.472;18.048;2022-08-21T07:00:28;18.70;99.90
10282;DHT22;5186;59.472;18.048;2022-08-21T07:02:53;18.70;99.90
10282;DHT22;5186;59.472;18.048;2022-08-21T07:05:19;18.80;99.90
10282;DHT22;5186;59.472;18.048;2022-08-21T07:07:45;18.70;99.90
10282;DHT22;5186;59.472;18.048;2022-08-21T07:10:12;18.80;99.90
10282;DHT22;5186;59.472;18.048;2022-08-21T07:12:37;18.80;99.90
10282;DHT22;5186;59.472;18.048;2022-08-21T07:15:04;18.80;99.90
10282;DHT22;5186;59.472;18.048;2022-08-21T07:17:29;18.80;99.90
10282;DHT22;5186;59.472;18.048;2022-08-21T07:19:55;18.90;99.90
10282;DHT22;5186;59.472;18.048;2022-08-21T07:22:22;18.90;99.90
10282;DHT22;5186;59.472;18.048;2022-08-21T07:24:48;18.90;99.90
10282;DHT22;5186;59.472;18.048;2022-08-21T07:27:13;18.90;99.90
10282;DHT22;5186;59.472;18.048;2022-08-21T07:29:39;18.90;99.90
10282;DHT22;5186;59.472;18.048;2022-08-21T07:32:05;19.00;99.90
10282;DHT22;5186;59.472;18.048;2022-08-21T07:34:30;19.00;99.90
10282;DHT22;5186;59.472;18.048;2022-08-21T07:36:57;19.10;99.90
10282;DHT22;5186;59.472;18.048;2022-08-21T07:39:23;19.10;99.90
10282;DHT22;5186;59.472;18.048;2022-08-21T07:41:48;19.10;99.90
10282;DHT22;5186;59.472;18.048;2022-08-21T07:44:14;19.10;99.90
10282;DHT22;5186;59.472;18.048;2022-08-21T07:46:39;19.10;99.90
10282;DHT22;5186;59.472;18.048;2022-08-21T07:49:05;19.20;99.90
10282;DHT22;5186;59.472;18.048;2022-08-21T07:51:30;19.20;99.90
10282;DHT22;5186;59.472;18.048;2022-08-21T07:53:58;19.20;99.90
10282;DHT22;5186;59.472;18.048;2022-08-21T07:56:26;19.30;99.90
10282;DHT22;5186;59.472;18.048;2022-08-21T07:58:52;19.30;99.90
10282;DHT22;5186;59.472;18.048;2022-08-21T08:01:17;19.40;99.90
10282;DHT22;5186;59.472;18.048;2022-08-21T08:03:43;19.40;99.90
10282;DHT22;5186;59.472;18.048;2022-08-21T08:06:10;19.40;99.90
10282;DHT22;5186;59.472;18.048;2022-08-21T08:08:38;19.50;99.90
10282;DHT22;5186;59.472;18.048;2022-08-21T08:11:05;19.50;99.90
10282;DHT22;5186;59.472;18.048;2022-08-21T08:13:30;19.60;99.90
10282;DHT22;5186;59.472;18.048;2022-08-21T08:15:56;19.60;99.90
10282;DHT22;5186;59.472;18.048;2022-08-21T08:18:22;19.60;99.90
10282;DHT22;5186;59.472;18.048;2022-08-21T08:20:47;19.70;99.90
10282;DHT22;5186;59.472;18.048;2022-08-21T08:23:14;19.70;99.90
10282;DHT22;5186;59.472;18.048;2022-08-21T08:25:41;19.80;99.90
10282;DHT22;5186;59.472;18.048;2022-08-21T08:28:07;19.80;99.90
10282;DHT22;5186;59.472;18.048;2022-08-21T08:30:33;19.90;99.90
10282;DHT22;5186;59.472;18.048;2022-08-21T08:32:58;19.90;99.90
10282;DHT22;5186;59.472;18.048;2022-08-21T08:35:25;20.00;99.90
10282;DHT22;5186;59.472;18.048;2022-08-21T08:37:51;20.00;99.90
10282;DHT22;5186;59.472;18.048;2022-08-21T08:42:49;20.10;99.90
10282;DHT22;5186;59.472;18.048;2022-08-21T08:45:19;20.10;99.90
10282;DHT22;5186;59.472;18.048;2022-08-21T08:47:51;20.20;99.90
10282;DHT22;5186;59.472;18.048;2022-08-21T08:53:07;20.30;99.90
10282;DHT22;5186;59.472;18.048;2022-08-21T08:55:37;20.40;99.90
10282;DHT22;5186;59.472;18.048;2022-08-21T08:58:04;20.40;99.90
10282;DHT22;5186;59.472;18.048;2022-08-21T09:00:31;20.50;99.90
10282;DHT22;5186;59.472;18.048;2022-08-21T09:02:59;20.60;99.90
10282;DHT22;5186;59.472;18.048;2022-08-21T09:07:57;20.70;99.90
10282;DHT22;5186;59.472;18.048;2022-08-21T09:10:49;20.80;99.90
10282;DHT22;5186;59.472;18.048;2022-08-21T09:27:19;21.20;99.90
10282;DHT22;5186;59.472;18.048;2022-08-21T09:29:48;21.20;99.90
10282;DHT22;5186;59.472;18.048;2022-08-21T09:32:26;21.30;99.90
10282;DHT22;5186;59.472;18.048;2022-08-21T09:35:19;21.30;99.90
10282;DHT22;5186;59.472;18.048;2022-08-21T09:37:56;21.40;99.90
10282;DHT22;5186;59.472;18.048;2022-08-21T09:40:44;21.40;99.90
10282;DHT22;5186;59.472;18.048;2022-08-21T09:43:22;21.50;99.90
10282;DHT22;5186;59.472;18.048;2022-08-21T09:46:09;21.50;99.90
10282;DHT22;5186;59.472;18.048;2022-08-21T09:48:45;21.60;99.90
10282;DHT22;5186;59.472;18.048;2022-08-21T09:51:18;21.60;99.90
10282;DHT22;5186;59.472;18.048;2022-08-21T09:53:48;21.60;99.90
10282;DHT22;5186;59.472;18.048;2022-08-21T09:56:34;21.60;99.90
10282;DHT22;5186;59.472;18.048;2022-08-21T09:59:28;21.60;99.90
10282;DHT22;5186;59.472;18.048;2022-08-21T10:01:57;21.60;99.90
10282;DHT22;5186;59.472;18.048;2022-08-21T10:04:43;21.70;99.90
10282;DHT22;5186;59.472;18.048;2022-08-21T10:07:14;21.70;99.90
10282;DHT22;5186;59.472;18.048;2022-08-21T10:09:41;21.80;99.90
10282;DHT22;5186;59.472;18.048;2022-08-21T10:14:54;21.90;99.90
10282;DHT22;5186;59.472;18.048;2022-08-21T10:17:47;21.90;99.90
10282;DHT22;5186;59.472;18.048;2022-08-21T10:20:23;21.80;99.90
10282;DHT22;5186;59.472;18.048;2022-08-21T10:25:41;21.90;99.90
10282;DHT22;5186;59.472;18.048;2022-08-21T10:28:36;22.00;99.90
10282;DHT22;5186;59.472;18.048;2022-08-21T10:31:27;21.90;99.90
10282;DHT22;5186;59.472;18.048;2022-08-21T10:39:35;22.00;99.90
10282;DHT22;5186;59.472;18.048;2022-08-21T10:55:31;22.20;99.90
10282;DHT22;5186;59.472;18.048;2022-08-21T10:58:02;22.20;99.90
10282;DHT22;5186;59.472;18.048;2022-08-21T11:00:49;22.10;99.90
10282;DHT22;5186;59.472;18.048;2022-08-21T11:03:35;22.20;99.90
10282;DHT22;5186;59.472;18.048;2022-08-21T11:06:09;22.30;99.90
10282;DHT22;5186;59.472;18.048;2022-08-21T11:08:46;22.40;99.90
10282;DHT22;5186;59.472;18.048;2022-08-21T11:11:27;22.40;99.90
10282;DHT22;5186;59.472;18.048;2022-08-21T11:14:13;22.50;99.90
10282;DHT22;5186;59.472;18.048;2022-08-21T11:16:45;22.50;99.90
10282;DHT22;5186;59.472;18.048;2022-08-21T11:19:35;22.50;99.90
10282;DHT22;5186;59.472;18.048;2022-08-21T11:22:29;22.50;99.90
10282;DHT22;5186;59.472;18.048;2022-08-21T11:28:08;22.50;99.90
10282;DHT22;5186;59.472;18.048;2022-08-21T11:45:19;22.50;99.90
10282;DHT22;5186;59.472;18.048;2022-08-21T11:50:38;22.60;99.90
10282;DHT22;5186;59.472;18.048;2022-08-21T11:55:48;22.70;99.90
10282;DHT22;5186;59.472;18.048;2022-08-21T11:58:31;22.60;99.90
10282;DHT22;5186;59.472;18.048;2022-08-21T12:01:03;22.50;99.90
10282;DHT22;5186;59.472;18.048;2022-08-21T12:03:33;22.50;99.90
10282;DHT22;5186;59.472;18.048;2022-08-21T12:06:09;22.50;99.90
10282;DHT22;5186;59.472;18.048;2022-08-21T12:08:38;22.60;99.90
10282;DHT22;5186;59.472;18.048;2022-08-21T12:13:57;22.60;99.90
10282;DHT22;5186;59.472;18.048;2022-08-21T12:16:41;22.60;99.90
10282;DHT22;5186;59.472;18.048;2022-08-21T12:19:10;22.60;99.90
10282;DHT22;5186;59.472;18.048;2022-08-21T12:24:45;22.60;99.90
10282;DHT22;5186;59.472;18.048;2022-08-21T12:27:51;22.70;99.90
10282;DHT22;5186;59.472;18.048;2022-08-21T12:30:35;22.70;99.90
10282;DHT22;5186;59.472;18.048;2022-08-21T12:33:17;22.80;99.90
10282;DHT22;5186;59.472;18.048;2022-08-21T12:35:44;22.80;99.90
10282;DHT22;5186;59.472;18.048;2022-08-21T12:38:23;22.70;99.90
10282;DHT22;5186;59.472;18.048;2022-08-21T12:41:04;22.80;99.90
10282;DHT22;5186;59.472;18.048;2022-08-21T12:43:35;22.80;99.90
10282;DHT22;5186;59.472;18.048;2022-08-21T12:46:02;22.80;99.90
10282;DHT22;5186;59.472;18.048;2022-08-21T12:48:44;22.80;99.90
10282;DHT22;5186;59.472;18.048;2022-08-21T12:51:17;22.90;99.90
10282;DHT22;5186;59.472;18.048;2022-08-21T12:53:54;22.90;99.90
10282;DHT22;5186;59.472;18.048;2022-08-21T12:56:25;22.70;99.90
10282;DHT22;5186;59.472;18.048;2022-08-21T12:59:00;22.80;99.90
10282;DHT22;5186;59.472;18.048;2022-08-21T13:01:33;22.70;99.90
10282;DHT22;5186;59.472;18.048;2022-08-21T13:04:21;22.60;99.90
10282;DHT22;5186;59.472;18.048;2022-08-21T13:06:50;22.80;99.90
10282;DHT22;5186;59.472;18.048;2022-08-21T13:09:20;22.80;99.90
10282;DHT22;5186;59.472;18.048;2022-08-21T13:11:48;22.80;99.90
10282;DHT22;5186;59.472;18.048;2022-08-21T13:14:28;22.90;99.90
10282;DHT22;5186;59.472;18.048;2022-08-21T13:16:55;23.00;99.90
10282;DHT22;5186;59.472;18.048;2022-08-21T13:19:22;23.00;99.90
10282;DHT22;5186;59.472;18.048;2022-08-21T13:21:49;23.00;99.90
10282;DHT22;5186;59.472;18.048;2022-08-21T13:24:31;22.90;99.90
10282;DHT22;5186;59.472;18.048;2022-08-21T13:26:58;22.90;99.90
10282;DHT22;5186;59.472;18.048;2022-08-21T13:29:29;22.90;99.90
10282;DHT22;5186;59.472;18.048;2022-08-21T13:31:58;22.90;99.90
10282;DHT22;5186;59.472;18.048;2022-08-21T13:34:30;23.00;99.90
10282;DHT22;5186;59.472;18.048;2022-08-21T13:37:03;23.00;99.90
10282;DHT22;5186;59.472;18.048;2022-08-21T13:39:30;23.00;99.90
10282;DHT22;5186;59.472;18.048;2022-08-21T13:41:59;23.00;99.90
10282;DHT22;5186;59.472;18.048;2022-08-21T13:44:34;23.00;99.90
10282;DHT22;5186;59.472;18.048;2022-08-21T13:47:02;23.00;99.90
10282;DHT22;5186;59.472;18.048;2022-08-21T13:49:41;23.00;99.90
10282;DHT22;5186;59.472;18.048;2022-08-21T13:52:21;23.00;99.90
10282;DHT22;5186;59.472;18.048;2022-08-21T13:54:59;23.00;99.90
10282;DHT22;5186;59.472;18.048;2022-08-21T13:57:27;23.10;99.90
10282;DHT22;5186;59.472;18.048;2022-08-21T14:00:19;23.10;99.90
10282;DHT22;5186;59.472;18.048;2022-08-21T14:02:49;23.20;99.90
10282;DHT22;5186;59.472;18.048;2022-08-21T14:05:31;23.20;99.90
10282;DHT22;5186;59.472;18.048;2022-08-21T14:08:10;23.20;99.90
10282;DHT22;5186;59.472;18.048;2022-08-21T14:10:42;23.30;99.90
10282;DHT22;5186;59.472;18.048;2022-08-21T14:13:28;23.30;99.90
10282;DHT22;5186;59.472;18.048;2022-08-21T14:15:58;23.40;99.90
10282;DHT22;5186;59.472;18.048;2022-08-21T14:18:24;23.30;99.90
10282;DHT22;5186;59.472;18.048;2022-08-21T14:20:51;23.30;99.90
10282;DHT22;5186;59.472;18.048;2022-08-21T14:23:26;23.40;99.90
10282;DHT22;5186;59.472;18.048;2022-08-21T14:25:53;23.50;99.90
10282;DHT22;5186;59.472;18.048;2022-08-21T14:30:51;23.50;99.90
10282;DHT22;5186;59.472;18.048;2022-08-21T14:33:27;23.50;99.90
10282;DHT22;5186;59.472;18.048;2022-08-21T14:35:54;23.50;99.90
10282;DHT22;5186;59.472;18.048;2022-08-21T14:38:22;23.50;99.90
10282;DHT22;5186;59.472;18.048;2022-08-21T14:40:53;23.60;99.90
10282;DHT22;5186;59.472;18.048;2022-08-21T14:43:20;23.50;99.90
10282;DHT22;5186;59.472;18.048;2022-08-21T14:45:46;23.60;99.90
10282;DHT22;5186;59.472;18.048;2022-08-21T14:48:13;23.70;99.90
10282;DHT22;5186;59.472;18.048;2022-08-21T14:50:38;23.70;99.90
10282;DHT22;5186;59.472;18.048;2022-08-21T14:53:05;23.80;99.90
10282;DHT22;5186;59.472;18.048;2022-08-21T14:55:31;23.80;99.90
10282;DHT22;5186;59.472;18.048;2022-08-21T14:58:20;23.80;99.90
10282;DHT22;5186;59.472;18.048;2022-08-21T15:00:49;23.80;99.90
10282;DHT22;5186;59.472;18.048;2022-08-21T15:03:14;23.90;99.90
10282;DHT22;5186;59.472;18.048;2022-08-21T15:05:40;23.90;99.90
10282;DHT22;5186;59.472;18.048;2022-08-21T15:08:06;23.90;99.90
10282;DHT22;5186;59.472;18.048;2022-08-21T15:10:32;23.90;99.90
10282;DHT22;5186;59.472;18.048;2022-08-21T15:12:59;23.90;99.90
10282;DHT22;5186;59.472;18.048;2022-08-21T15:15:25;23.90;99.90
10282;DHT22;5186;59.472;18.048;2022-08-21T15:17:51;24.00;99.90
10282;DHT22;5186;59.472;18.048;2022-08-21T15:20:16;24.00;99.90
10282;DHT22;5186;59.472;18.048;2022-08-21T15:22:42;24.00;99.90
10282;DHT22;5186;59.472;18.048;2022-08-21T15:25:08;24.10;99.90
10282;DHT22;5186;59.472;18.048;2022-08-21T15:27:34;24.20;99.90
10282;DHT22;5186;59.472;18.048;2022-08-21T15:30:01;24.20;99.90
10282;DHT22;5186;59.472;18.048;2022-08-21T15:32:27;24.20;99.90
10282;DHT22;5186;59.472;18.048;2022-08-21T15:34:56;24.20;99.90
10282;DHT22;5186;59.472;18.048;2022-08-21T15:37:23;24.20;99.90
10282;DHT22;5186;59.472;18.048;2022-08-21T15:39:50;24.20;99.90
10282;DHT22;5186;59.472;18.048;2022-08-21T15:42:16;24.10;99.90
10282;DHT22;5186;59.472;18.048;2022-08-21T15:44:42;24.10;99.90
10282;DHT22;5186;59.472;18.048;2022-08-21T15:47:16;24.00;99.90
10282;DHT22;5186;59.472;18.048;2022-08-21T15:49:42;24.00;99.90
10282;DHT22;5186;59.472;18.048;2022-08-21T15:52:11;24.00;99.90
10282;DHT22;5186;59.472;18.048;2022-08-21T15:54:37;23.90;99.90
10282;DHT22;5186;59.472;18.048;2022-08-21T15:57:03;23.80;99.90
10282;DHT22;5186;59.472;18.048;2022-08-21T15:59:38;23.80;99.90
10282;DHT22;5186;59.472;18.048;2022-08-21T16:02:05;23.80;99.90
10282;DHT22;5186;59.472;18.048;2022-08-21T16:04:31;23.70;99.90
10282;DHT22;5186;59.472;18.048;2022-08-21T16:06:57;23.70;99.90
10282;DHT22;5186;59.472;18.048;2022-08-21T16:09:23;23.70;99.90
10282;DHT22;5186;59.472;18.048;2022-08-21T16:11:48;23.70;99.90
10282;DHT22;5186;59.472;18.048;2022-08-21T16:14:15;23.70;99.90
10282;DHT22;5186;59.472;18.048;2022-08-21T16:16:42;23.60;99.90
10282;DHT22;5186;59.472;18.048;2022-08-21T16:19:09;23.60;99.90
10282;DHT22;5186;59.472;18.048;2022-08-21T16:21:36;23.60;99.90
10282;DHT22;5186;59.472;18.048;2022-08-21T16:24:02;23.60;99.90
10282;DHT22;5186;59.472;18.048;2022-08-21T16:26:28;23.50;99.90
10282;DHT22;5186;59.472;18.048;2022-08-21T16:28:55;23.50;99.90
10282;DHT22;5186;59.472;18.048;2022-08-21T16:31:23;23.50;99.90
10282;DHT22;5186;59.472;18.048;2022-08-21T16:33:52;23.50;99.90
10282;DHT22;5186;59.472;18.048;2022-08-21T16:36:18;23.50;99.90
10282;DHT22;5186;59.472;18.048;2022-08-21T16:38:44;23.40;99.90
10282;DHT22;5186;59.472;18.048;2022-08-21T16:41:14;23.40;99.90
10282;DHT22;5186;59.472;18.048;2022-08-21T16:43:42;23.30;99.90
10282;DHT22;5186;59.472;18.048;2022-08-21T16:46:10;23.30;99.90
10282;DHT22;5186;59.472;18.048;2022-08-21T16:48:37;23.30;99.90
10282;DHT22;5186;59.472;18.048;2022-08-21T16:51:03;23.20;99.90
10282;DHT22;5186;59.472;18.048;2022-08-21T16:53:29;23.20;99.90
10282;DHT22;5186;59.472;18.048;2022-08-21T16:55:55;23.20;99.90
10282;DHT22;5186;59.472;18.048;2022-08-21T16:58:34;23.10;99.90
10282;DHT22;5186;59.472;18.048;2022-08-21T17:01:04;23.00;99.90
10282;DHT22;5186;59.472;18.048;2022-08-21T17:03:33;23.00;99.90
10282;DHT22;5186;59.472;18.048;2022-08-21T17:06:00;22.90;99.90